RA75475 ULLI-ULPB
Flight info
| Callsign | RA75475 |
|---|---|
| Flight time | 1h 28m |
| Altitude | 15000 |
| Route | RELNI T693 DISUP T821 BOBMU |
| Aircraft | DA42/L-L/C |
Departure
| Time | 2026-04-23 18:10 |
|---|---|
| Airport | Pulkovo Airport (ULLI) |
Arrival
| Time | 2026-04-23 19:39 |
|---|---|
| Airport | Petrozavodsk Airport (ULPB) |
| Time | Latitude | Longitude | Altitude | Speed | Heading |
|---|---|---|---|---|---|
| 2026-04-23 17:33 | 59.80106 | 30.28068 | 70 ft | 0 kts | 14° |
| 2026-04-23 18:05 | 59.80117 | 30.28073 | 63 ft | 4 kts | 17° |
| 2026-04-23 18:05 | 59.80145 | 30.28095 | 70 ft | 3 kts | 22° |
| 2026-04-23 18:05 | 59.80200 | 30.28161 | 62 ft | 10 kts | 76° |
| 2026-04-23 18:06 | 59.80178 | 30.28352 | 69 ft | 19 kts | 103° |
| 2026-04-23 18:06 | 59.80158 | 30.28553 | 69 ft | 13 kts | 75° |
| 2026-04-23 18:06 | 59.80213 | 30.28683 | 68 ft | 12 kts | 49° |
| 2026-04-23 18:06 | 59.80220 | 30.28699 | 69 ft | 0 kts | 46° |
| 2026-04-23 18:08 | 59.80257 | 30.28780 | 66 ft | 16 kts | 46° |
| 2026-04-23 18:09 | 59.80328 | 30.28835 | 70 ft | 13 kts | 319° |
| 2026-04-23 18:09 | 59.80374 | 30.28586 | 70 ft | 46 kts | 286° |
| 2026-04-23 18:09 | 59.80509 | 30.27648 | 107 ft | 89 kts | 288° |
| 2026-04-23 18:09 | 59.80706 | 30.26371 | 273 ft | 101 kts | 289° |
| 2026-04-23 18:10 | 59.80911 | 30.25004 | 633 ft | 104 kts | 288° |
| 2026-04-23 18:10 | 59.81064 | 30.23646 | 1116 ft | 96 kts | 287° |
| 2026-04-23 18:10 | 59.81180 | 30.22338 | 1498 ft | 97 kts | 287° |
| 2026-04-23 18:10 | 59.81339 | 30.21039 | 1842 ft | 95 kts | 296° |
| 2026-04-23 18:11 | 59.81554 | 30.19794 | 2159 ft | 96 kts | 297° |
| 2026-04-23 18:11 | 59.81770 | 30.18527 | 2492 ft | 97 kts | 297° |
| 2026-04-23 18:11 | 59.81990 | 30.17247 | 2836 ft | 98 kts | 297° |
| 2026-04-23 18:11 | 59.82212 | 30.15959 | 3167 ft | 99 kts | 297° |
| 2026-04-23 18:12 | 59.82436 | 30.14665 | 3513 ft | 99 kts | 297° |
| 2026-04-23 18:12 | 59.82661 | 30.13372 | 3879 ft | 99 kts | 297° |
| 2026-04-23 18:12 | 59.82922 | 30.12125 | 4226 ft | 95 kts | 316° |
| 2026-04-23 18:12 | 59.83478 | 30.11600 | 4600 ft | 90 kts | 2° |
| 2026-04-23 18:13 | 59.84095 | 30.11869 | 4942 ft | 93 kts | 21° |
| 2026-04-23 18:13 | 59.84612 | 30.12652 | 5299 ft | 97 kts | 46° |
| 2026-04-23 18:13 | 59.84912 | 30.13885 | 5657 ft | 101 kts | 63° |
| 2026-04-23 18:13 | 59.85164 | 30.15200 | 6004 ft | 102 kts | 62° |
| 2026-04-23 18:14 | 59.85341 | 30.16068 | 6242 ft | 102 kts | 61° |
| 2026-04-23 18:14 | 59.85711 | 30.17800 | 6707 ft | 101 kts | 59° |
| 2026-04-23 18:14 | 59.85992 | 30.19082 | 7054 ft | 101 kts | 58° |
| 2026-04-23 18:14 | 59.86274 | 30.20352 | 7402 ft | 100 kts | 57° |
| 2026-04-23 18:15 | 59.86557 | 30.21618 | 7756 ft | 100 kts | 56° |
| 2026-04-23 18:15 | 59.86838 | 30.22877 | 8116 ft | 99 kts | 55° |
| 2026-04-23 18:15 | 59.87119 | 30.24128 | 8475 ft | 99 kts | 54° |
| 2026-04-23 18:15 | 59.87398 | 30.25374 | 8841 ft | 98 kts | 53° |
| 2026-04-23 18:16 | 59.87676 | 30.26614 | 9205 ft | 98 kts | 53° |
| 2026-04-23 18:16 | 59.87953 | 30.27848 | 9576 ft | 97 kts | 52° |
| 2026-04-23 18:16 | 59.88260 | 30.29019 | 9898 ft | 90 kts | 33° |
| 2026-04-23 18:17 | 59.89228 | 30.30443 | 10573 ft | 87 kts | 28° |
| 2026-04-23 18:17 | 59.89706 | 30.31170 | 10913 ft | 86 kts | 28° |
| 2026-04-23 18:17 | 59.90179 | 30.31906 | 11251 ft | 86 kts | 29° |
| 2026-04-23 18:17 | 59.90608 | 30.32584 | 11565 ft | 86 kts | 29° |
| 2026-04-23 18:18 | 59.91079 | 30.33334 | 11908 ft | 86 kts | 29° |
| 2026-04-23 18:18 | 59.91547 | 30.34084 | 12266 ft | 86 kts | 29° |
| 2026-04-23 18:18 | 59.92017 | 30.34840 | 12610 ft | 87 kts | 29° |
| 2026-04-23 18:18 | 59.92488 | 30.35599 | 12961 ft | 87 kts | 29° |
| 2026-04-23 18:19 | 59.92958 | 30.36358 | 13318 ft | 87 kts | 29° |
| 2026-04-23 18:19 | 59.93428 | 30.37119 | 13665 ft | 87 kts | 29° |
| 2026-04-23 18:19 | 59.93897 | 30.37877 | 13977 ft | 87 kts | 28° |
| 2026-04-23 18:19 | 59.94365 | 30.38634 | 14291 ft | 87 kts | 28° |
| 2026-04-23 18:20 | 59.94832 | 30.39391 | 14607 ft | 87 kts | 27° |
| 2026-04-23 18:20 | 59.95313 | 30.40165 | 14811 ft | 97 kts | 28° |
| 2026-04-23 18:20 | 59.95899 | 30.41105 | 14814 ft | 118 kts | 30° |
| 2026-04-23 18:20 | 59.96569 | 30.42195 | 14817 ft | 130 kts | 30° |
| 2026-04-23 18:21 | 59.97290 | 30.43369 | 14816 ft | 137 kts | 31° |
| 2026-04-23 18:21 | 59.98043 | 30.44593 | 14817 ft | 142 kts | 31° |
| 2026-04-23 18:21 | 59.98817 | 30.45851 | 14818 ft | 145 kts | 31° |
| 2026-04-23 18:21 | 59.99602 | 30.47128 | 14817 ft | 147 kts | 31° |
| 2026-04-23 18:22 | 60.00398 | 30.48423 | 14816 ft | 148 kts | 31° |
| 2026-04-23 18:22 | 60.00937 | 30.49301 | 14816 ft | 148 kts | 31° |
| 2026-04-23 18:22 | 60.01740 | 30.50609 | 14816 ft | 149 kts | 31° |
| 2026-04-23 18:22 | 60.02544 | 30.51919 | 14817 ft | 150 kts | 31° |
| 2026-04-23 18:23 | 60.03341 | 30.53218 | 14817 ft | 150 kts | 31° |
| 2026-04-23 18:23 | 60.04956 | 30.55854 | 14819 ft | 150 kts | 31° |
| 2026-04-23 18:24 | 60.06577 | 30.58502 | 14818 ft | 150 kts | 31° |
| 2026-04-23 18:24 | 60.07387 | 30.59826 | 14817 ft | 150 kts | 31° |
| 2026-04-23 18:24 | 60.08196 | 30.61152 | 14817 ft | 150 kts | 31° |
| 2026-04-23 18:25 | 60.09817 | 30.63807 | 14815 ft | 150 kts | 31° |
| 2026-04-23 18:25 | 60.10627 | 30.65135 | 14815 ft | 150 kts | 31° |
| 2026-04-23 18:25 | 60.11436 | 30.66462 | 14815 ft | 150 kts | 31° |
| 2026-04-23 18:25 | 60.12245 | 30.67790 | 14815 ft | 150 kts | 31° |
| 2026-04-23 18:26 | 60.13053 | 30.69119 | 14816 ft | 150 kts | 31° |
| 2026-04-23 18:26 | 60.13863 | 30.70449 | 14816 ft | 150 kts | 31° |
| 2026-04-23 18:26 | 60.14671 | 30.71780 | 14816 ft | 150 kts | 31° |
| 2026-04-23 18:26 | 60.15483 | 30.73114 | 14808 ft | 152 kts | 31° |
| 2026-04-23 18:27 | 60.16296 | 30.74455 | 14812 ft | 151 kts | 31° |
| 2026-04-23 18:27 | 60.17110 | 30.75797 | 14812 ft | 151 kts | 32° |
| 2026-04-23 18:27 | 60.17923 | 30.77139 | 14812 ft | 151 kts | 31° |
| 2026-04-23 18:27 | 60.18737 | 30.78482 | 14810 ft | 151 kts | 31° |
| 2026-04-23 18:28 | 60.19548 | 30.79821 | 14809 ft | 151 kts | 32° |
| 2026-04-23 18:28 | 60.20360 | 30.81164 | 14808 ft | 151 kts | 32° |
| 2026-04-23 18:28 | 60.21172 | 30.82506 | 14810 ft | 151 kts | 32° |
| 2026-04-23 18:28 | 60.21986 | 30.83853 | 14804 ft | 153 kts | 32° |
| 2026-04-23 18:29 | 60.22806 | 30.85211 | 14804 ft | 152 kts | 32° |
| 2026-04-23 18:29 | 60.23625 | 30.86568 | 14804 ft | 152 kts | 32° |
| 2026-04-23 18:29 | 60.24438 | 30.87917 | 14798 ft | 152 kts | 32° |
| 2026-04-23 18:29 | 60.25252 | 30.89268 | 14798 ft | 152 kts | 32° |
| 2026-04-23 18:30 | 60.26069 | 30.90623 | 14798 ft | 152 kts | 32° |
| 2026-04-23 18:30 | 60.26874 | 30.91961 | 14798 ft | 152 kts | 32° |
| 2026-04-23 18:30 | 60.27689 | 30.93317 | 14799 ft | 152 kts | 32° |
| 2026-04-23 18:30 | 60.28514 | 30.94691 | 14798 ft | 152 kts | 32° |
| 2026-04-23 18:31 | 60.29317 | 30.96028 | 14800 ft | 152 kts | 32° |
| 2026-04-23 18:31 | 60.30131 | 30.97384 | 14801 ft | 152 kts | 32° |
| 2026-04-23 18:31 | 60.30943 | 30.98738 | 14800 ft | 152 kts | 32° |
| 2026-04-23 18:31 | 60.31757 | 31.00095 | 14801 ft | 152 kts | 32° |
| 2026-04-23 18:32 | 60.32569 | 31.01452 | 14803 ft | 151 kts | 32° |
| 2026-04-23 18:32 | 60.33381 | 31.02806 | 14801 ft | 151 kts | 32° |
| 2026-04-23 18:32 | 60.34192 | 31.04162 | 14796 ft | 152 kts | 32° |
| 2026-04-23 18:32 | 60.35004 | 31.05522 | 14795 ft | 152 kts | 32° |
| 2026-04-23 18:33 | 60.35816 | 31.06882 | 14796 ft | 152 kts | 32° |
| 2026-04-23 18:33 | 60.36629 | 31.08243 | 14797 ft | 152 kts | 32° |
| 2026-04-23 18:33 | 60.37440 | 31.09603 | 14796 ft | 152 kts | 32° |
| 2026-04-23 18:33 | 60.38253 | 31.10966 | 14796 ft | 152 kts | 32° |
| 2026-04-23 18:34 | 60.39068 | 31.12332 | 14793 ft | 153 kts | 32° |
| 2026-04-23 18:34 | 60.39888 | 31.13709 | 14792 ft | 153 kts | 32° |
| 2026-04-23 18:34 | 60.40711 | 31.15089 | 14792 ft | 154 kts | 32° |
| 2026-04-23 18:34 | 60.41532 | 31.16472 | 14793 ft | 154 kts | 32° |
| 2026-04-23 18:35 | 60.42328 | 31.17936 | 14791 ft | 158 kts | 40° |
| 2026-04-23 18:35 | 60.42919 | 31.19866 | 14792 ft | 166 kts | 54° |
| 2026-04-23 18:35 | 60.43512 | 31.21775 | 14778 ft | 154 kts | 32° |
| 2026-04-23 18:35 | 60.44421 | 31.22813 | 14782 ft | 150 kts | 24° |
| 2026-04-23 18:36 | 60.45300 | 31.23986 | 14780 ft | 152 kts | 29° |
| 2026-04-23 18:36 | 60.46145 | 31.25302 | 14780 ft | 153 kts | 31° |
| 2026-04-23 18:36 | 60.46972 | 31.26673 | 14780 ft | 154 kts | 32° |
| 2026-04-23 18:36 | 60.47796 | 31.28058 | 14780 ft | 154 kts | 32° |
| 2026-04-23 18:37 | 60.48619 | 31.29445 | 14785 ft | 154 kts | 32° |
| 2026-04-23 18:37 | 60.49440 | 31.30831 | 14785 ft | 153 kts | 32° |
| 2026-04-23 18:37 | 60.50261 | 31.32214 | 14785 ft | 153 kts | 32° |
| 2026-04-23 18:37 | 60.51082 | 31.33598 | 14784 ft | 153 kts | 32° |
| 2026-04-23 18:38 | 60.51902 | 31.34978 | 14782 ft | 153 kts | 32° |
| 2026-04-23 18:38 | 60.52723 | 31.36361 | 14778 ft | 153 kts | 32° |
| 2026-04-23 18:38 | 60.53542 | 31.37744 | 14778 ft | 153 kts | 32° |
| 2026-04-23 18:38 | 60.54360 | 31.39128 | 14779 ft | 153 kts | 32° |
| 2026-04-23 18:39 | 60.55179 | 31.40513 | 14778 ft | 153 kts | 32° |
| 2026-04-23 18:39 | 60.55997 | 31.41897 | 14779 ft | 153 kts | 32° |
| 2026-04-23 18:39 | 60.56814 | 31.43282 | 14777 ft | 153 kts | 32° |
| 2026-04-23 18:39 | 60.57633 | 31.44669 | 14779 ft | 153 kts | 32° |
| 2026-04-23 18:40 | 60.58449 | 31.46055 | 14775 ft | 153 kts | 32° |
| 2026-04-23 18:40 | 60.59266 | 31.47442 | 14776 ft | 153 kts | 32° |
| 2026-04-23 18:40 | 60.60083 | 31.48829 | 14776 ft | 153 kts | 32° |
| 2026-04-23 18:40 | 60.60899 | 31.50216 | 14775 ft | 153 kts | 32° |
| 2026-04-23 18:41 | 60.61716 | 31.51606 | 14778 ft | 153 kts | 32° |
| 2026-04-23 18:41 | 60.62539 | 31.53003 | 14773 ft | 155 kts | 32° |
| 2026-04-23 18:41 | 60.63363 | 31.54408 | 14776 ft | 155 kts | 32° |
| 2026-04-23 18:41 | 60.64188 | 31.55815 | 14773 ft | 154 kts | 32° |
| 2026-04-23 18:42 | 60.65013 | 31.57219 | 14774 ft | 155 kts | 32° |
| 2026-04-23 18:42 | 60.65836 | 31.58623 | 14773 ft | 154 kts | 32° |
| 2026-04-23 18:42 | 60.66661 | 31.60031 | 14772 ft | 154 kts | 32° |
| 2026-04-23 18:42 | 60.67483 | 31.61437 | 14776 ft | 154 kts | 32° |
| 2026-04-23 18:43 | 60.68305 | 31.62844 | 14774 ft | 154 kts | 32° |
| 2026-04-23 18:43 | 60.69126 | 31.64249 | 14777 ft | 154 kts | 32° |
| 2026-04-23 18:43 | 60.69946 | 31.65653 | 14778 ft | 154 kts | 32° |
| 2026-04-23 18:43 | 60.70765 | 31.67055 | 14772 ft | 154 kts | 32° |
| 2026-04-23 18:44 | 60.71585 | 31.68461 | 14771 ft | 154 kts | 32° |
| 2026-04-23 18:44 | 60.72406 | 31.69869 | 14770 ft | 154 kts | 32° |
| 2026-04-23 18:44 | 60.73227 | 31.71279 | 14768 ft | 154 kts | 32° |
| 2026-04-23 18:44 | 60.74050 | 31.72692 | 14770 ft | 155 kts | 32° |
| 2026-04-23 18:45 | 60.74874 | 31.74110 | 14769 ft | 155 kts | 32° |
| 2026-04-23 18:45 | 60.75698 | 31.75528 | 14769 ft | 155 kts | 32° |
| 2026-04-23 18:45 | 60.76512 | 31.76929 | 14772 ft | 155 kts | 32° |
| 2026-04-23 18:45 | 60.77346 | 31.78368 | 14770 ft | 155 kts | 32° |
| 2026-04-23 18:46 | 60.78159 | 31.79768 | 14766 ft | 155 kts | 32° |
| 2026-04-23 18:46 | 60.78982 | 31.81188 | 14766 ft | 155 kts | 32° |
| 2026-04-23 18:46 | 60.79803 | 31.82605 | 14766 ft | 154 kts | 32° |
| 2026-04-23 18:46 | 60.80624 | 31.84024 | 14763 ft | 155 kts | 32° |
| 2026-04-23 18:47 | 60.81446 | 31.85445 | 14764 ft | 155 kts | 32° |
| 2026-04-23 18:47 | 60.82269 | 31.86869 | 14760 ft | 155 kts | 32° |
| 2026-04-23 18:47 | 60.83093 | 31.88296 | 14763 ft | 155 kts | 33° |
| 2026-04-23 18:47 | 60.83917 | 31.89725 | 14760 ft | 155 kts | 33° |
| 2026-04-23 18:48 | 60.84741 | 31.91153 | 14764 ft | 155 kts | 33° |
| 2026-04-23 18:48 | 60.85561 | 31.92580 | 14762 ft | 155 kts | 33° |
| 2026-04-23 18:48 | 60.86383 | 31.94006 | 14762 ft | 155 kts | 33° |
| 2026-04-23 18:48 | 60.87207 | 31.95433 | 14761 ft | 155 kts | 33° |
| 2026-04-23 18:49 | 60.88029 | 31.96862 | 14767 ft | 155 kts | 33° |
| 2026-04-23 18:49 | 60.88850 | 31.98292 | 14762 ft | 155 kts | 33° |
| 2026-04-23 18:49 | 60.89670 | 31.99719 | 14765 ft | 155 kts | 33° |
| 2026-04-23 18:49 | 60.90491 | 32.01151 | 14757 ft | 155 kts | 33° |
| 2026-04-23 18:50 | 60.91044 | 32.02115 | 14759 ft | 154 kts | 33° |
| 2026-04-23 18:50 | 60.92129 | 32.04006 | 14758 ft | 155 kts | 33° |
| 2026-04-23 18:50 | 60.92949 | 32.05438 | 14764 ft | 155 kts | 33° |
| 2026-04-23 18:50 | 60.93771 | 32.06873 | 14759 ft | 155 kts | 33° |
| 2026-04-23 18:51 | 60.94590 | 32.08308 | 14757 ft | 155 kts | 33° |
| 2026-04-23 18:51 | 60.95412 | 32.09746 | 14762 ft | 155 kts | 33° |
| 2026-04-23 18:51 | 60.96232 | 32.11180 | 14756 ft | 155 kts | 33° |
| 2026-04-23 18:51 | 60.97052 | 32.12616 | 14758 ft | 155 kts | 33° |
| 2026-04-23 18:52 | 60.97870 | 32.14051 | 14755 ft | 155 kts | 33° |
| 2026-04-23 18:52 | 60.98687 | 32.15484 | 14759 ft | 154 kts | 33° |
| 2026-04-23 18:52 | 60.99502 | 32.16916 | 14757 ft | 154 kts | 33° |
| 2026-04-23 18:52 | 61.00316 | 32.18346 | 14757 ft | 154 kts | 33° |
| 2026-04-23 18:53 | 61.01129 | 32.19777 | 14764 ft | 154 kts | 33° |
| 2026-04-23 18:53 | 61.01942 | 32.21207 | 14759 ft | 154 kts | 33° |
| 2026-04-23 18:53 | 61.02754 | 32.22637 | 14762 ft | 154 kts | 33° |
| 2026-04-23 18:53 | 61.03566 | 32.24068 | 14760 ft | 154 kts | 33° |
| 2026-04-23 18:54 | 61.04380 | 32.25501 | 14758 ft | 154 kts | 33° |
| 2026-04-23 18:54 | 61.05193 | 32.26937 | 14758 ft | 154 kts | 33° |
| 2026-04-23 18:54 | 61.06005 | 32.28370 | 14757 ft | 153 kts | 33° |
| 2026-04-23 18:54 | 61.06815 | 32.29801 | 14756 ft | 153 kts | 33° |
| 2026-04-23 18:55 | 61.07626 | 32.31235 | 14761 ft | 153 kts | 33° |
| 2026-04-23 18:55 | 61.08437 | 32.32671 | 14766 ft | 154 kts | 33° |
| 2026-04-23 18:55 | 61.09254 | 32.34118 | 14754 ft | 155 kts | 33° |
| 2026-04-23 18:55 | 61.10073 | 32.35571 | 14755 ft | 155 kts | 33° |
| 2026-04-23 18:56 | 61.10617 | 32.36536 | 14752 ft | 156 kts | 33° |
| 2026-04-23 18:56 | 61.11718 | 32.38489 | 14752 ft | 156 kts | 33° |
| 2026-04-23 18:56 | 61.12542 | 32.39951 | 14751 ft | 156 kts | 33° |
| 2026-04-23 18:56 | 61.13365 | 32.41414 | 14752 ft | 156 kts | 33° |
| 2026-04-23 18:57 | 61.14188 | 32.42878 | 14752 ft | 156 kts | 33° |
| 2026-04-23 18:57 | 61.15010 | 32.44340 | 14752 ft | 156 kts | 33° |
| 2026-04-23 18:57 | 61.15832 | 32.45801 | 14751 ft | 156 kts | 33° |
| 2026-04-23 18:57 | 61.16652 | 32.47262 | 14753 ft | 156 kts | 33° |
| 2026-04-23 18:58 | 61.17473 | 32.48726 | 14739 ft | 157 kts | 33° |
| 2026-04-23 18:58 | 61.18312 | 32.50223 | 14502 ft | 159 kts | 33° |
| 2026-04-23 18:58 | 61.19139 | 32.51706 | 14269 ft | 156 kts | 33° |
| 2026-04-23 18:58 | 61.19952 | 32.53160 | 14055 ft | 153 kts | 34° |
| 2026-04-23 18:59 | 61.20756 | 32.54598 | 13825 ft | 152 kts | 34° |
| 2026-04-23 18:59 | 61.21554 | 32.56025 | 13597 ft | 151 kts | 34° |
| 2026-04-23 18:59 | 61.22345 | 32.57456 | 13359 ft | 151 kts | 34° |
| 2026-04-23 18:59 | 61.23123 | 32.58856 | 13111 ft | 150 kts | 34° |
| 2026-04-23 19:00 | 61.23912 | 32.60265 | 12862 ft | 149 kts | 34° |
| 2026-04-23 19:00 | 61.24702 | 32.61665 | 12612 ft | 149 kts | 34° |
| 2026-04-23 19:00 | 61.25487 | 32.63070 | 12368 ft | 149 kts | 35° |
| 2026-04-23 19:00 | 61.26270 | 32.64481 | 12118 ft | 149 kts | 35° |
| 2026-04-23 19:01 | 61.27049 | 32.65883 | 11908 ft | 147 kts | 35° |
| 2026-04-23 19:01 | 61.27821 | 32.67271 | 11707 ft | 146 kts | 36° |
| 2026-04-23 19:01 | 61.28585 | 32.68647 | 11521 ft | 145 kts | 36° |
| 2026-04-23 19:01 | 61.29346 | 32.70017 | 11279 ft | 146 kts | 36° |
| 2026-04-23 19:02 | 61.29870 | 32.70960 | 11109 ft | 148 kts | 36° |
| 2026-04-23 19:02 | 61.30906 | 32.72830 | 10765 ft | 150 kts | 37° |
| 2026-04-23 19:02 | 61.31698 | 32.74260 | 10507 ft | 151 kts | 37° |
| 2026-04-23 19:02 | 61.32493 | 32.75696 | 10263 ft | 152 kts | 37° |
| 2026-04-23 19:03 | 61.33292 | 32.77143 | 10009 ft | 153 kts | 37° |
| 2026-04-23 19:03 | 61.34096 | 32.78596 | 9757 ft | 153 kts | 37° |
| 2026-04-23 19:03 | 61.34902 | 32.80055 | 9492 ft | 154 kts | 37° |
| 2026-04-23 19:03 | 61.35708 | 32.81516 | 9212 ft | 153 kts | 37° |
| 2026-04-23 19:04 | 61.36511 | 32.82974 | 8929 ft | 153 kts | 37° |
| 2026-04-23 19:04 | 61.37310 | 32.84424 | 8650 ft | 152 kts | 37° |
| 2026-04-23 19:04 | 61.38104 | 32.85866 | 8376 ft | 151 kts | 37° |
| 2026-04-23 19:04 | 61.38892 | 32.87297 | 8109 ft | 150 kts | 37° |
| 2026-04-23 19:05 | 61.39676 | 32.88723 | 7834 ft | 149 kts | 37° |
| 2026-04-23 19:05 | 61.40455 | 32.90140 | 7565 ft | 148 kts | 37° |
| 2026-04-23 19:05 | 61.41227 | 32.91547 | 7304 ft | 147 kts | 36° |
| 2026-04-23 19:05 | 61.41993 | 32.92942 | 7045 ft | 146 kts | 36° |
| 2026-04-23 19:06 | 61.42753 | 32.94328 | 6786 ft | 144 kts | 36° |
| 2026-04-23 19:06 | 61.43479 | 32.95657 | 6737 ft | 132 kts | 36° |
| 2026-04-23 19:06 | 61.44140 | 32.96867 | 6730 ft | 121 kts | 35° |
| 2026-04-23 19:06 | 61.44782 | 32.98032 | 6556 ft | 125 kts | 35° |
| 2026-04-23 19:07 | 61.45436 | 32.99223 | 6354 ft | 128 kts | 36° |
| 2026-04-23 19:07 | 61.46120 | 33.00473 | 6149 ft | 130 kts | 36° |
| 2026-04-23 19:07 | 61.46797 | 33.01714 | 5896 ft | 133 kts | 36° |
| 2026-04-23 19:07 | 61.47496 | 33.03018 | 5622 ft | 137 kts | 40° |
| 2026-04-23 19:08 | 61.48105 | 33.04588 | 5356 ft | 140 kts | 45° |
| 2026-04-23 19:08 | 61.48511 | 33.05677 | 5175 ft | 141 kts | 45° |
| 2026-04-23 19:08 | 61.49288 | 33.07768 | 5033 ft | 130 kts | 45° |
| 2026-04-23 19:08 | 61.49656 | 33.08758 | 4969 ft | 127 kts | 45° |
| 2026-04-23 19:09 | 61.50213 | 33.10245 | 4721 ft | 133 kts | 45° |
| 2026-04-23 19:09 | 61.50977 | 33.12296 | 4456 ft | 134 kts | 45° |
| 2026-04-23 19:09 | 61.51504 | 33.13879 | 4307 ft | 136 kts | 61° |
| 2026-04-23 19:09 | 61.51691 | 33.15837 | 4180 ft | 135 kts | 69° |
| 2026-04-23 19:10 | 61.51922 | 33.17042 | 4075 ft | 131 kts | 51° |
| 2026-04-23 19:10 | 61.52439 | 33.18628 | 3952 ft | 133 kts | 47° |
| 2026-04-23 19:10 | 61.52999 | 33.20203 | 3820 ft | 136 kts | 46° |
| 2026-04-23 19:10 | 61.53580 | 33.21778 | 3685 ft | 137 kts | 45° |
| 2026-04-23 19:11 | 61.54178 | 33.23373 | 3558 ft | 141 kts | 45° |
| 2026-04-23 19:11 | 61.54789 | 33.25000 | 3456 ft | 142 kts | 46° |
| 2026-04-23 19:11 | 61.55398 | 33.26623 | 3408 ft | 142 kts | 46° |
| 2026-04-23 19:11 | 61.56018 | 33.28261 | 3352 ft | 144 kts | 46° |
| 2026-04-23 19:12 | 61.56637 | 33.29908 | 3301 ft | 144 kts | 46° |
| 2026-04-23 19:12 | 61.57260 | 33.31563 | 3249 ft | 145 kts | 46° |
| 2026-04-23 19:12 | 61.57887 | 33.33231 | 3196 ft | 146 kts | 46° |
| 2026-04-23 19:12 | 61.58515 | 33.34899 | 3141 ft | 146 kts | 46° |
| 2026-04-23 19:13 | 61.59131 | 33.36535 | 3127 ft | 143 kts | 46° |
| 2026-04-23 19:13 | 61.59745 | 33.38168 | 3135 ft | 142 kts | 46° |
| 2026-04-23 19:13 | 61.60356 | 33.39794 | 3135 ft | 142 kts | 46° |
| 2026-04-23 19:13 | 61.60966 | 33.41417 | 3132 ft | 141 kts | 46° |
| 2026-04-23 19:14 | 61.61573 | 33.43033 | 3122 ft | 141 kts | 46° |
| 2026-04-23 19:14 | 61.62180 | 33.44654 | 3127 ft | 141 kts | 46° |
| 2026-04-23 19:14 | 61.62789 | 33.46276 | 3123 ft | 141 kts | 46° |
| 2026-04-23 19:14 | 61.63395 | 33.47891 | 3124 ft | 140 kts | 46° |
| 2026-04-23 19:15 | 61.63998 | 33.49498 | 3127 ft | 140 kts | 46° |
| 2026-04-23 19:15 | 61.64603 | 33.51112 | 3126 ft | 140 kts | 46° |
| 2026-04-23 19:15 | 61.65206 | 33.52724 | 3127 ft | 140 kts | 46° |
| 2026-04-23 19:15 | 61.65810 | 33.54338 | 3124 ft | 140 kts | 46° |
| 2026-04-23 19:16 | 61.66415 | 33.55954 | 3131 ft | 140 kts | 46° |
| 2026-04-23 19:16 | 61.67020 | 33.57569 | 3131 ft | 141 kts | 46° |
| 2026-04-23 19:16 | 61.67625 | 33.59185 | 3130 ft | 140 kts | 46° |
| 2026-04-23 19:17 | 61.68831 | 33.62412 | 3124 ft | 140 kts | 46° |
| 2026-04-23 19:17 | 61.69434 | 33.64028 | 3123 ft | 140 kts | 46° |
| 2026-04-23 19:17 | 61.70037 | 33.65641 | 3128 ft | 140 kts | 46° |
| 2026-04-23 19:17 | 61.70639 | 33.67252 | 3111 ft | 140 kts | 46° |
| 2026-04-23 19:18 | 61.71239 | 33.68861 | 3117 ft | 140 kts | 46° |
| 2026-04-23 19:18 | 61.71838 | 33.70467 | 3124 ft | 139 kts | 46° |
| 2026-04-23 19:18 | 61.72436 | 33.72071 | 3128 ft | 140 kts | 46° |
| 2026-04-23 19:18 | 61.73039 | 33.73688 | 3127 ft | 140 kts | 46° |
| 2026-04-23 19:19 | 61.74250 | 33.76939 | 3126 ft | 142 kts | 46° |
| 2026-04-23 19:19 | 61.74859 | 33.78578 | 3125 ft | 142 kts | 46° |
| 2026-04-23 19:20 | 61.76083 | 33.81867 | 3118 ft | 142 kts | 46° |
| 2026-04-23 19:20 | 61.76691 | 33.83502 | 3125 ft | 141 kts | 46° |
| 2026-04-23 19:20 | 61.77298 | 33.85134 | 3128 ft | 141 kts | 46° |
| 2026-04-23 19:20 | 61.77903 | 33.86763 | 3123 ft | 140 kts | 46° |
| 2026-04-23 19:21 | 61.78498 | 33.88365 | 3124 ft | 138 kts | 46° |
| 2026-04-23 19:21 | 61.79666 | 33.91515 | 3117 ft | 137 kts | 46° |
| 2026-04-23 19:21 | 61.80251 | 33.93097 | 3115 ft | 136 kts | 46° |
| 2026-04-23 19:22 | 61.80836 | 33.94670 | 3117 ft | 136 kts | 46° |
| 2026-04-23 19:22 | 61.81423 | 33.96249 | 3117 ft | 137 kts | 46° |
| 2026-04-23 19:22 | 61.82595 | 33.99412 | 3118 ft | 137 kts | 46° |
| 2026-04-23 19:23 | 61.83182 | 34.00998 | 3119 ft | 137 kts | 46° |
| 2026-04-23 19:23 | 61.83768 | 34.02581 | 3116 ft | 136 kts | 46° |
| 2026-04-23 19:23 | 61.84352 | 34.04161 | 3116 ft | 136 kts | 46° |
| 2026-04-23 19:24 | 61.85518 | 34.07313 | 3116 ft | 136 kts | 46° |
| 2026-04-23 19:24 | 61.86101 | 34.08889 | 3115 ft | 136 kts | 46° |
| 2026-04-23 19:24 | 61.87264 | 34.12038 | 3110 ft | 136 kts | 46° |
| 2026-04-23 19:25 | 61.88501 | 34.14991 | 3091 ft | 130 kts | 20° |
| 2026-04-23 19:25 | 61.89902 | 34.13593 | 3096 ft | 131 kts | 289° |
| 2026-04-23 19:26 | 61.88988 | 34.10295 | 3107 ft | 148 kts | 214° |
| 2026-04-23 19:26 | 61.88078 | 34.09252 | 3106 ft | 149 kts | 212° |
| 2026-04-23 19:27 | 61.86239 | 34.07213 | 3115 ft | 150 kts | 212° |
| 2026-04-23 19:27 | 61.83455 | 34.04125 | 2774 ft | 152 kts | 212° |
| 2026-04-23 19:28 | 61.81590 | 34.02061 | 2510 ft | 151 kts | 212° |
| 2026-04-23 19:28 | 61.79736 | 34.00016 | 2240 ft | 149 kts | 212° |
| 2026-04-23 19:29 | 61.78815 | 33.99007 | 2115 ft | 148 kts | 212° |
| 2026-04-23 19:29 | 61.77065 | 33.97119 | 2112 ft | 136 kts | 212° |
| 2026-04-23 19:30 | 61.75395 | 33.95343 | 2119 ft | 134 kts | 212° |
| 2026-04-23 19:30 | 61.74565 | 33.94468 | 2119 ft | 133 kts | 212° |
| 2026-04-23 19:30 | 61.72932 | 33.92674 | 2123 ft | 133 kts | 213° |
| 2026-04-23 19:31 | 61.72098 | 33.91751 | 2124 ft | 137 kts | 213° |
| 2026-04-23 19:31 | 61.71226 | 33.90872 | 2113 ft | 143 kts | 198° |
| 2026-04-23 19:31 | 61.70239 | 33.91094 | 2112 ft | 147 kts | 153° |
| 2026-04-23 19:31 | 61.69555 | 33.92604 | 2115 ft | 142 kts | 107° |
| 2026-04-23 19:32 | 61.69523 | 33.94567 | 2115 ft | 132 kts | 62° |
| 2026-04-23 19:32 | 61.70101 | 33.95906 | 2122 ft | 123 kts | 26° |
| 2026-04-23 19:32 | 61.70840 | 33.96801 | 2119 ft | 123 kts | 24° |
| 2026-04-23 19:32 | 61.71609 | 33.97667 | 2033 ft | 129 kts | 22° |
| 2026-04-23 19:33 | 61.72427 | 33.98558 | 1914 ft | 135 kts | 22° |
| 2026-04-23 19:33 | 61.73274 | 33.99469 | 1814 ft | 136 kts | 22° |
| 2026-04-23 19:33 | 61.74673 | 34.00971 | 1811 ft | 128 kts | 22° |
| 2026-04-23 19:34 | 61.75458 | 34.01808 | 1804 ft | 125 kts | 22° |
| 2026-04-23 19:34 | 61.76228 | 34.02632 | 1805 ft | 124 kts | 22° |
| 2026-04-23 19:34 | 61.77757 | 34.04268 | 1803 ft | 123 kts | 22° |
| 2026-04-23 19:35 | 61.78506 | 34.05070 | 1805 ft | 122 kts | 22° |
| 2026-04-23 19:35 | 61.79263 | 34.05879 | 1807 ft | 122 kts | 22° |
| 2026-04-23 19:35 | 61.79880 | 34.06542 | 1806 ft | 123 kts | 22° |
| 2026-04-23 19:35 | 61.80636 | 34.07354 | 1730 ft | 124 kts | 22° |
| 2026-04-23 19:36 | 61.81351 | 34.08131 | 1695 ft | 107 kts | 21° |
| 2026-04-23 19:36 | 61.81996 | 34.08823 | 1585 ft | 105 kts | 21° |
| 2026-04-23 19:36 | 61.82655 | 34.09530 | 1386 ft | 106 kts | 21° |
| 2026-04-23 19:36 | 61.83298 | 34.10221 | 1142 ft | 103 kts | 22° |
| 2026-04-23 19:37 | 61.83927 | 34.10895 | 886 ft | 100 kts | 23° |
| 2026-04-23 19:37 | 61.84541 | 34.11553 | 702 ft | 97 kts | 24° |
| 2026-04-23 19:37 | 61.85141 | 34.12196 | 590 ft | 96 kts | 25° |
| 2026-04-23 19:37 | 61.85736 | 34.12836 | 517 ft | 96 kts | 24° |
| 2026-04-23 19:38 | 61.86321 | 34.13465 | 466 ft | 92 kts | 24° |
| 2026-04-23 19:38 | 61.86918 | 34.14025 | 356 ft | 96 kts | 17° |
| 2026-04-23 19:38 | 61.87512 | 34.14561 | 197 ft | 86 kts | 21° |
| 2026-04-23 19:38 | 61.87968 | 34.14969 | 166 ft | 55 kts | 23° |
| 2026-04-23 19:39 | 61.88257 | 34.15236 | 166 ft | 37 kts | 24° |
| 2026-04-23 19:39 | 61.88433 | 34.15399 | 168 ft | 2 kts | 25° |
| 2026-04-23 19:39 | 61.88434 | 34.15400 | 168 ft | 0 kts | 25° |
| 2026-04-23 19:39 | 61.88435 | 34.15387 | 169 ft | 4 kts | 192° |
| 2026-04-23 19:40 | 61.88347 | 34.15323 | 166 ft | 25 kts | 204° |
| 2026-04-23 19:40 | 61.88172 | 34.15162 | 164 ft | 25 kts | 204° |
| 2026-04-23 19:40 | 61.88034 | 34.15037 | 165 ft | 19 kts | 203° |
| 2026-04-23 19:40 | 61.87937 | 34.14965 | 166 ft | 10 kts | 173° |
| 2026-04-23 19:41 | 61.87896 | 34.15065 | 174 ft | 10 kts | 112° |
| 2026-04-23 19:41 | 61.87861 | 34.15233 | 178 ft | 12 kts | 112° |
| 2026-04-23 19:41 | 61.87820 | 34.15360 | 178 ft | 10 kts | 184° |
| 2026-04-23 19:41 | 61.87772 | 34.15368 | 178 ft | 9 kts | 118° |
| 2026-04-23 19:42 | 61.87753 | 34.15461 | 178 ft | 4 kts | 110° |
| 2026-04-23 19:42 | 61.87753 | 34.15462 | 178 ft | 0 kts | 110° |